»·PEaware :: UPS917 KONT-KSDF

UPS917 :: KONT-KSDF

FLIGHT INFORMATION

Flight Status: Arrived
Operator:
United Parcel Service
More flights by this operator :: More flights under this callsign
Pilot: Rick B. (10537)
Aircraft: Unknown
(B77L)
More flights by this aircraft type
Origin: KONT Ontario Intl
United States
Destination: KSDF Louisville Intl-Standiford
United States
More flights between these airports :: More routes between these airports
Route: SNSHN3 LAS J146 DVC LAA KK51A KK51G DAAVE DAMEN4
File this flight plan on PilotEdge
Remarks: real wx
Altitude:
(Current/Filed)
35,000ft
Speed:
(Current/Filed)
525kts
Departed: 29-Apr-18 01:31 PM
Arrived: 29-Apr-18 04:53 PM
Distance/Time
Traveled:
1556nm/3:22
Distance/Time
To Go:
Arrived

Flight Plot

Page will automatically refresh every two minutes.

Flight plan parsing failed; only flown route is shown


Map Options




Map Legend


Flown Route
Filed Route
Departure Airport
Arrival Airport
Navaid (VOR, NDB)
Fix

Horizontal Profiles

Position Reports

Time Latitude Longitude Heading Altitude Ground
Speed
29-Apr-18 13:11 34.049044 -117.581880 178 957ft 0kts
29-Apr-18 13:12 34.049044 -117.581880 178 957ft 0kts
29-Apr-18 13:13 34.049044 -117.581880 178 957ft 0kts
29-Apr-18 13:14 34.049044 -117.581880 178 957ft 0kts
29-Apr-18 13:15 34.049044 -117.581880 178 957ft 0kts
29-Apr-18 13:16 34.049044 -117.581880 178 957ft 0kts
29-Apr-18 13:17 34.049044 -117.581880 178 957ft 0kts
29-Apr-18 13:18 34.049044 -117.581880 178 957ft 0kts
29-Apr-18 13:19 34.049044 -117.581880 178 957ft 0kts
29-Apr-18 13:20 34.049044 -117.581880 178 957ft 0kts
29-Apr-18 13:21 34.049044 -117.581880 178 957ft 0kts
29-Apr-18 13:22 34.049203 -117.581882 178 957ft 2kts
29-Apr-18 13:23 34.049446 -117.581464 55 957ft 8kts
29-Apr-18 13:24 34.049681 -117.581348 5 957ft 0kts
29-Apr-18 13:25 34.051370 -117.581044 12 957ft 8kts
29-Apr-18 13:26 34.052241 -117.581967 270 957ft 9kts
29-Apr-18 13:27 34.053868 -117.582690 358 957ft 2kts
29-Apr-18 13:28 34.054125 -117.582698 358 957ft 0kts
29-Apr-18 13:29 34.054950 -117.583389 270 957ft 4kts
29-Apr-18 13:30 34.054995 -117.589541 266 957ft 101kts
29-Apr-18 13:31 34.055654 -117.648177 272 3390ft 209kts
29-Apr-18 13:32 34.063032 -117.724772 284 6369ft 249kts
29-Apr-18 13:33 34.091443 -117.803993 304 8835ft 267kts
29-Apr-18 13:34 34.145589 -117.869597 318 12210ft 282kts
29-Apr-18 13:35 34.207092 -117.931815 315 15455ft 294kts
29-Apr-18 13:36 34.287783 -117.968902 6 18023ft 366kts
29-Apr-18 13:37 34.366691 -117.880161 67 20475ft 438kts
29-Apr-18 13:38 34.385274 -117.723374 85 21809ft 496kts
29-Apr-18 13:39 34.417893 -117.561485 58 22742ft 501kts
29-Apr-18 13:40 34.498734 -117.422674 48 25111ft 511kts
29-Apr-18 13:41 34.585137 -117.282146 49 27512ft 525kts
29-Apr-18 13:42 34.673023 -117.137989 49 29740ft 537kts
29-Apr-18 13:43 34.760748 -116.993237 48 32329ft 529kts
29-Apr-18 13:44 34.846990 -116.849557 48 34483ft 522kts
29-Apr-18 13:45 34.933524 -116.707446 43 34852ft 518kts
29-Apr-18 13:46 35.031422 -116.579588 40 34860ft 517kts
29-Apr-18 13:47 35.129704 -116.450331 41 34867ft 519kts
29-Apr-18 13:49 35.229095 -116.319146 41 34868ft 536kts
29-Apr-18 13:50 35.330583 -116.184097 41 34867ft 538kts
29-Apr-18 13:51 35.431983 -116.048747 41 34844ft 540kts
29-Apr-18 13:52 35.533555 -115.912433 42 34830ft 543kts
29-Apr-18 13:52 35.618541 -115.797689 42 34819ft 543kts
29-Apr-18 13:53 35.719381 -115.659266 42 34810ft 544kts
29-Apr-18 13:54 35.819945 -115.520187 43 34801ft 544kts
29-Apr-18 13:55 35.921157 -115.381012 43 34800ft 543kts
29-Apr-18 13:56 36.021236 -115.241527 43 34783ft 544kts
29-Apr-18 13:57 36.106020 -115.084881 66 34763ft 560kts
29-Apr-18 13:58 36.158670 -114.903599 67 34778ft 558kts
29-Apr-18 14:00 36.222646 -114.694512 67 34773ft 556kts
29-Apr-18 14:00 36.267988 -114.544787 68 34759ft 555kts
29-Apr-18 14:01 36.322244 -114.366017 67 34764ft 554kts
29-Apr-18 14:02 36.376410 -114.187358 68 34771ft 554kts
29-Apr-18 14:03 36.430091 -114.008060 68 34773ft 553kts
29-Apr-18 14:04 36.483298 -113.829158 68 34777ft 553kts
29-Apr-18 14:05 36.536754 -113.649442 68 34796ft 553kts
29-Apr-18 14:06 36.589284 -113.469775 69 34827ft 553kts
29-Apr-18 14:07 36.641581 -113.289929 69 34838ft 553kts
29-Apr-18 14:08 36.693633 -113.109024 69 34851ft 553kts
29-Apr-18 14:09 36.745275 -112.928575 69 34876ft 553kts
29-Apr-18 14:10 36.797572 -112.748518 70 34877ft 552kts
29-Apr-18 14:11 36.848755 -112.567327 70 34885ft 552kts
29-Apr-18 14:12 36.899554 -112.386493 70 34896ft 552kts
29-Apr-18 14:13 36.950230 -112.204827 71 34851ft 552kts
29-Apr-18 14:14 37.000331 -112.023597 71 34824ft 552kts
29-Apr-18 14:15 37.050775 -111.842406 71 34807ft 551kts
29-Apr-18 14:16 37.100835 -111.660580 71 34787ft 551kts
29-Apr-18 14:17 37.150647 -111.479146 71 34776ft 551kts
29-Apr-18 14:18 37.199614 -111.297301 71 34780ft 551kts
29-Apr-18 14:19 37.248540 -111.114632 71 34782ft 551kts
29-Apr-18 14:20 37.296825 -110.932154 72 34797ft 551kts
29-Apr-18 14:21 37.345360 -110.749069 71 34806ft 551kts
29-Apr-18 14:22 37.393797 -110.566493 72 34838ft 551kts
29-Apr-18 14:23 37.441612 -110.383496 72 34862ft 551kts
29-Apr-18 14:24 37.489283 -110.199628 72 34887ft 552kts
29-Apr-18 14:25 37.536560 -110.015935 72 34913ft 552kts
29-Apr-18 14:26 37.583496 -109.832227 72 34937ft 551kts
29-Apr-18 14:27 37.630274 -109.647785 72 34953ft 551kts
29-Apr-18 14:28 37.676580 -109.463863 72 34957ft 550kts
29-Apr-18 14:29 37.722685 -109.280263 72 34949ft 549kts
29-Apr-18 14:30 37.768400 -109.095840 72 34933ft 548kts
29-Apr-18 14:31 37.810789 -108.911087 79 34920ft 548kts
29-Apr-18 14:32 37.828458 -108.719854 86 34913ft 546kts
29-Apr-18 14:33 37.843169 -108.528975 85 34925ft 546kts
29-Apr-18 14:34 37.859859 -108.337759 84 34980ft 546kts
29-Apr-18 14:35 37.875894 -108.146702 85 35023ft 546kts
29-Apr-18 14:36 37.891470 -107.955661 85 35061ft 546kts
29-Apr-18 14:37 37.906776 -107.763874 85 35065ft 546kts
29-Apr-18 14:38 37.921681 -107.573134 85 35050ft 544kts
29-Apr-18 14:39 37.936226 -107.383013 85 35033ft 542kts
29-Apr-18 14:40 37.950445 -107.193068 85 35061ft 539kts
29-Apr-18 14:41 37.964253 -107.004589 85 35038ft 536kts
29-Apr-18 14:42 37.977654 -106.817398 85 35099ft 533kts
29-Apr-18 14:43 37.990755 -106.630356 85 35120ft 530kts
29-Apr-18 14:44 38.003450 -106.444896 85 35131ft 528kts
29-Apr-18 14:45 38.015853 -106.259179 85 35131ft 526kts
29-Apr-18 14:46 38.027903 -106.074436 85 35113ft 526kts
29-Apr-18 14:47 38.039670 -105.889501 86 34983ft 526kts
29-Apr-18 14:48 38.051180 -105.704036 86 34981ft 526kts
29-Apr-18 14:49 38.062365 -105.519065 86 34968ft 526kts
29-Apr-18 14:50 38.073223 -105.334626 86 34948ft 525kts
29-Apr-18 14:51 38.083822 -105.149690 87 34923ft 523kts
29-Apr-18 14:52 38.094066 -104.965842 87 34853ft 522kts
29-Apr-18 14:53 38.104019 -104.781934 87 34826ft 521kts
29-Apr-18 14:54 38.113641 -104.598954 87 34798ft 519kts
29-Apr-18 14:55 38.122945 -104.416403 87 34771ft 518kts
29-Apr-18 14:56 38.132008 -104.233394 87 34766ft 518kts
29-Apr-18 14:57 38.140738 -104.051145 87 34766ft 517kts
29-Apr-18 14:58 38.149172 -103.868978 88 34761ft 517kts
29-Apr-18 14:59 38.157369 -103.686137 88 34755ft 517kts
29-Apr-18 15:00 38.165249 -103.503904 88 34747ft 517kts
29-Apr-18 15:01 38.172875 -103.320924 88 34739ft 517kts
29-Apr-18 15:02 38.180186 -103.138665 88 34736ft 517kts
29-Apr-18 15:03 38.187578 -102.956423 89 34728ft 517kts
29-Apr-18 15:04 38.194060 -102.773712 89 34723ft 516kts
29-Apr-18 15:05 38.206600 -102.592136 82 34724ft 518kts
29-Apr-18 15:06 38.230374 -102.411808 82 34735ft 517kts
29-Apr-18 15:07 38.252284 -102.230736 82 34755ft 517kts
29-Apr-18 15:08 38.274597 -102.050238 82 34776ft 516kts
29-Apr-18 15:09 38.296056 -101.869220 82 34789ft 516kts
29-Apr-18 15:10 38.317108 -101.688620 82 34806ft 516kts
29-Apr-18 15:11 38.337891 -101.507846 82 34814ft 517kts
29-Apr-18 15:12 38.358498 -101.326038 83 34818ft 518kts
29-Apr-18 15:13 38.378780 -101.144527 83 34824ft 518kts
29-Apr-18 15:14 38.398776 -100.962974 82 34835ft 518kts
29-Apr-18 15:15 38.418570 -100.780597 82 34839ft 518kts
29-Apr-18 15:16 38.438022 -100.598682 82 34858ft 519kts
29-Apr-18 15:17 38.457279 -100.415865 82 34860ft 519kts
29-Apr-18 15:18 38.476480 -100.233742 83 34861ft 518kts
29-Apr-18 15:19 38.494819 -100.051547 83 34873ft 518kts
29-Apr-18 15:20 38.505090 -99.867932 90 34892ft 518kts
29-Apr-18 15:21 38.507270 -99.684184 89 34888ft 518kts
29-Apr-18 15:22 38.511070 -99.499979 88 34890ft 517kts
29-Apr-18 15:23 38.515341 -99.316480 88 34895ft 518kts
29-Apr-18 15:24 38.518872 -99.133147 88 34907ft 517kts
29-Apr-18 15:25 38.522073 -98.949197 88 34916ft 517kts
29-Apr-18 15:26 38.524973 -98.765729 88 34925ft 517kts
29-Apr-18 15:27 38.527587 -98.582187 88 34928ft 518kts
29-Apr-18 15:28 38.529925 -98.397718 88 34935ft 518kts
29-Apr-18 15:29 38.531966 -98.213793 88 34947ft 518kts
29-Apr-18 15:30 38.533727 -98.029335 88 34958ft 518kts
29-Apr-18 15:31 38.535193 -97.845517 88 34966ft 518kts
29-Apr-18 15:32 38.536372 -97.661663 88 34976ft 518kts
29-Apr-18 15:33 38.537265 -97.477248 88 34985ft 518kts
29-Apr-18 15:34 38.537868 -97.293471 88 34992ft 518kts
29-Apr-18 15:35 38.538183 -97.109827 88 35007ft 517kts
29-Apr-18 15:36 38.538203 -96.925800 88 35010ft 516kts
29-Apr-18 15:37 38.537951 -96.742569 89 35031ft 516kts
29-Apr-18 15:38 38.537406 -96.558713 89 35061ft 517kts
29-Apr-18 15:39 38.536575 -96.375183 89 35070ft 517kts
29-Apr-18 15:40 38.535458 -96.191818 89 35075ft 517kts
29-Apr-18 15:41 38.534047 -96.007765 89 35081ft 517kts
29-Apr-18 15:42 38.532359 -95.824439 89 35085ft 517kts
29-Apr-18 15:43 38.530375 -95.640323 89 35089ft 517kts
29-Apr-18 15:44 38.528111 -95.456911 89 35114ft 517kts
29-Apr-18 15:45 38.525563 -95.273568 89 35119ft 517kts
29-Apr-18 15:46 38.522716 -95.089504 89 35123ft 517kts
29-Apr-18 15:47 38.519596 -94.906198 89 35135ft 517kts
29-Apr-18 15:48 38.516187 -94.722729 89 35157ft 517kts
29-Apr-18 15:49 38.512481 -94.538688 89 35164ft 517kts
29-Apr-18 15:50 38.508809 -94.355221 89 35165ft 518kts
29-Apr-18 15:51 38.504417 -94.171051 90 35167ft 518kts
29-Apr-18 15:52 38.499735 -93.987615 89 35169ft 518kts
29-Apr-18 15:53 38.500033 -93.804119 87 35171ft 517kts
29-Apr-18 15:54 38.500096 -93.620107 87 35172ft 517kts
29-Apr-18 15:55 38.500554 -93.436762 87 35175ft 517kts
29-Apr-18 15:56 38.500521 -93.253360 87 35187ft 517kts
29-Apr-18 15:57 38.499971 -93.069291 87 35206ft 517kts
29-Apr-18 15:58 38.499110 -92.885840 87 35210ft 518kts
29-Apr-18 15:59 38.497957 -92.701718 87 35213ft 517kts
29-Apr-18 16:00 38.496519 -92.518108 87 35223ft 518kts
29-Apr-18 16:02 38.494793 -92.334391 88 35222ft 518kts
29-Apr-18 16:03 38.492773 -92.150004 88 35222ft 518kts
29-Apr-18 16:04 38.490459 -91.966131 88 35221ft 519kts
29-Apr-18 16:05 38.487866 -91.781489 88 35237ft 519kts
29-Apr-18 16:06 38.484978 -91.597360 88 35247ft 519kts
29-Apr-18 16:07 38.481811 -91.413204 88 35257ft 520kts
29-Apr-18 16:08 38.478335 -91.228304 88 35264ft 520kts
29-Apr-18 16:08 38.475227 -91.074715 88 35271ft 520kts
29-Apr-18 16:09 38.471225 -90.890102 88 35276ft 521kts
29-Apr-18 16:10 38.466914 -90.704636 88 35281ft 522kts
29-Apr-18 16:11 38.462372 -90.521623 88 35286ft 515kts
29-Apr-18 16:12 38.457556 -90.339089 89 35304ft 515kts
29-Apr-18 16:13 38.452440 -90.155891 89 35309ft 516kts
29-Apr-18 16:14 38.447051 -89.973189 89 35311ft 516kts
29-Apr-18 16:15 38.441362 -89.789867 89 35311ft 516kts
29-Apr-18 16:16 38.435409 -89.607207 89 35316ft 515kts
29-Apr-18 16:17 38.429391 -89.424761 88 35319ft 515kts
29-Apr-18 16:18 38.422875 -89.241761 89 35321ft 515kts
29-Apr-18 16:19 38.415877 -89.059476 89 35322ft 515kts
29-Apr-18 16:20 38.407948 -88.877310 89 35328ft 515kts
29-Apr-18 16:21 38.399630 -88.694417 89 35331ft 515kts
29-Apr-18 16:22 38.392108 -88.512193 89 35330ft 516kts
29-Apr-18 16:23 38.383280 -88.329104 90 35330ft 517kts
29-Apr-18 16:24 38.374264 -88.146962 90 34928ft 508kts
29-Apr-18 16:25 38.365085 -87.969583 90 32654ft 495kts
29-Apr-18 16:26 38.355918 -87.797029 90 30777ft 478kts
29-Apr-18 16:27 38.347966 -87.630736 89 28850ft 464kts
29-Apr-18 16:28 38.338983 -87.468224 90 26875ft 453kts
29-Apr-18 16:29 38.330096 -87.312460 90 24983ft 441kts
29-Apr-18 16:30 38.313371 -87.159751 97 23094ft 431kts
29-Apr-18 16:31 38.294247 -87.010510 95 21195ft 421kts
29-Apr-18 16:32 38.275544 -86.865083 95 19313ft 412kts
29-Apr-18 16:33 38.257140 -86.722869 95 17459ft 403kts
29-Apr-18 16:34 38.239118 -86.583097 95 15594ft 396kts
29-Apr-18 16:35 38.221528 -86.447017 95 13992ft 380kts
29-Apr-18 16:36 38.204490 -86.317662 96 12513ft 365kts
29-Apr-18 16:37 38.188250 -86.197027 95 11987ft 324kts
29-Apr-18 16:38 38.173752 -86.089622 95 11351ft 297kts
29-Apr-18 16:39 38.165208 -85.987473 91 10281ft 286kts
29-Apr-18 16:40 38.156886 -85.888679 93 9224ft 277kts
29-Apr-18 16:41 38.105132 -85.822738 158 8044ft 282kts
29-Apr-18 16:42 38.031307 -85.791870 160 6967ft 276kts
29-Apr-18 16:43 37.958390 -85.766095 164 5957ft 269kts
29-Apr-18 16:44 37.886689 -85.742311 164 5058ft 263kts
29-Apr-18 16:45 37.826856 -85.697511 105 5043ft 261kts
29-Apr-18 16:46 37.865179 -85.639721 358 5060ft 249kts
29-Apr-18 16:47 37.932666 -85.663101 343 4604ft 255kts
29-Apr-18 16:48 38.000783 -85.687632 346 3503ft 253kts
29-Apr-18 16:49 38.068348 -85.709618 345 2310ft 236kts
29-Apr-18 16:50 38.120846 -85.727123 345 1309ft 163kts
29-Apr-18 16:51 38.160706 -85.740147 346 519ft 134kts
29-Apr-18 16:52 38.179348 -85.746272 345 514ft 19kts
29-Apr-18 16:53 38.180652 -85.743227 76 514ft 16kts
29-Apr-18 16:54 38.183596 -85.743059 68 514ft 3kts
29-Apr-18 16:55 38.183981 -85.742110 62 514ft 0kts
29-Apr-18 16:56 38.183981 -85.742110 62 514ft 0kts
29-Apr-18 16:57 38.183981 -85.742110 62 514ft 0kts
29-Apr-18 16:58 38.183981 -85.742110 62 514ft 0kts
29-Apr-18 16:59 38.183981 -85.742110 62 514ft 0kts
29-Apr-18 17:00 38.183981 -85.742110 62 514ft 0kts
29-Apr-18 17:01 38.183981 -85.742110 62 514ft 0kts
29-Apr-18 17:02 38.183981 -85.742110 62 514ft 0kts
29-Apr-18 17:03 38.183981 -85.742110 62 514ft 0kts

Navigation Log

Ident Type
Flight plan parsing failed, navigation log unavailable